Alto Paraguai, Brazil
Current Conditions -  °F | °C
As of 9:00 AM on Thursday 30 Oct 2014 (Local Time) from SBCY Reporting Station
Broken Clouds Broken Clouds  
Wind Chill: 88°   Ceiling: 10000
Heat Index: 93°   Visibility: 6mi
Dew Point: 70°   Wind: 12mph
Humidity: 55%   Direction: 340°NNW
Pressure: 29.83"   Gusts: NA
Location:  14.51°S, 56.48°W
Report Text: SBCY 301200Z 34010KT 9999 FEW020 BKN100 31/21 Q1010
Loading
Personal Weather Stations






























Interactive Weather Map
Tropical Storm Tracking
New forecast layout! Learn more

10-Day Weather Forecast

Advertisements
Track Severe Weather on mobile